createdAt,value
2018-04-02T00:00:25.839Z,1003.32
2018-04-02T00:01:25.722Z,1003.31
2018-04-02T00:02:25.633Z,1003.33
2018-04-02T00:03:25.515Z,1003.34
2018-04-02T00:04:25.412Z,1003.40
2018-04-02T00:05:25.297Z,1003.41
2018-04-02T00:06:25.193Z,1003.40
2018-04-02T00:07:25.090Z,1003.43
2018-04-02T00:08:24.974Z,1003.36
2018-04-02T00:09:24.870Z,1003.40
2018-04-02T00:10:24.767Z,1003.36
2018-04-02T00:11:24.663Z,1003.38
2018-04-02T00:12:24.548Z,1003.35
2018-04-02T00:13:24.445Z,1003.39
2018-04-02T00:14:24.345Z,1003.41
2018-04-02T00:15:24.225Z,1003.46
2018-04-02T00:16:24.125Z,1003.46
2018-04-02T00:17:24.021Z,1003.39
2018-04-02T00:18:23.904Z,1003.40
2018-04-02T00:19:23.800Z,1003.40
2018-04-02T00:20:23.698Z,1003.39
2018-04-02T00:21:23.593Z,1003.41
2018-04-02T00:22:23.477Z,1003.43
2018-04-02T00:23:23.374Z,1003.46
2018-04-02T00:24:23.273Z,1003.52
2018-04-02T00:25:23.157Z,1003.49
2018-04-02T00:26:23.054Z,1003.45
2018-04-02T00:27:22.949Z,1003.46
2018-04-02T00:28:22.846Z,1003.46
2018-04-02T00:29:22.729Z,1003.49
2018-04-02T00:30:22.625Z,1003.40
2018-04-02T00:31:22.522Z,1003.51
2018-04-02T00:32:22.411Z,1003.54
2018-04-02T00:33:22.303Z,1003.54
2018-04-02T00:34:22.202Z,1003.54
2018-04-02T00:35:22.085Z,1003.52
2018-04-02T00:36:21.980Z,1003.56
2018-04-02T00:37:21.877Z,1003.53
2018-04-02T00:38:21.774Z,1003.55
2018-04-02T00:39:21.659Z,1003.54
2018-04-02T00:40:21.555Z,1003.59
2018-04-02T00:41:21.453Z,1003.61
2018-04-02T00:42:21.336Z,1003.56
2018-04-02T00:43:21.243Z,1003.54
2018-04-02T00:44:21.129Z,1003.53
2018-04-02T00:45:21.014Z,1003.57
2018-04-02T00:46:20.913Z,1003.61
2018-04-02T00:47:21.107Z,1003.59
2018-04-02T00:48:20.705Z,1003.55
2018-04-02T00:49:20.588Z,1003.58
2018-04-02T00:50:20.484Z,1003.58
2018-04-02T00:51:20.381Z,1003.60
2018-04-02T00:52:20.284Z,1003.60
2018-04-02T00:53:20.163Z,1003.62
2018-04-02T00:54:20.062Z,1003.63
2018-04-02T00:55:19.956Z,1003.61
2018-04-02T00:56:19.839Z,1003.64
2018-04-02T00:57:19.736Z,1003.64
2018-04-02T00:58:19.632Z,1003.70
2018-04-02T00:59:19.517Z,1003.66
2018-04-02T01:00:19.414Z,1003.66
2018-04-02T01:01:19.311Z,1003.68
2018-04-02T01:02:19.195Z,1003.63
2018-04-02T01:03:19.094Z,1003.60
2018-04-02T01:04:18.989Z,1003.57
2018-04-02T01:05:18.895Z,1003.53
2018-04-02T01:06:18.770Z,1003.61
2018-04-02T01:07:18.673Z,1003.61
2018-04-02T01:08:18.596Z,1003.66
2018-04-02T01:09:18.446Z,1003.67
2018-04-02T01:10:18.343Z,1003.67
2018-04-02T01:11:18.240Z,1003.74
2018-04-02T01:12:18.138Z,1003.78
2018-04-02T01:13:18.022Z,1003.74
2018-04-02T01:14:17.917Z,1003.79
2018-04-02T01:15:17.814Z,1003.79
2018-04-02T01:16:17.700Z,1003.79
2018-04-02T01:17:17.607Z,1003.86
2018-04-02T01:18:17.491Z,1003.77
2018-04-02T01:19:17.377Z,1003.87
2018-04-02T01:20:17.273Z,1003.92
2018-04-02T01:21:17.169Z,1003.85
2018-04-02T01:22:17.053Z,1003.79
2018-04-02T01:23:16.954Z,1003.84
2018-04-02T01:24:16.846Z,1003.80
2018-04-02T01:25:16.730Z,1003.83
2018-04-02T01:26:16.628Z,1003.91
2018-04-02T01:27:16.524Z,1003.87
2018-04-02T01:28:16.410Z,1003.89
2018-04-02T01:29:16.306Z,1003.93
2018-04-02T01:30:16.201Z,1003.90
2018-04-02T01:31:16.112Z,1003.88
2018-04-02T01:32:15.983Z,1003.88
2018-04-02T01:33:15.881Z,1003.93
2018-04-02T01:34:15.777Z,1003.91
2018-04-02T01:35:15.660Z,1003.92
2018-04-02T01:36:15.557Z,1003.94
2018-04-02T01:37:15.453Z,1003.92
2018-04-02T01:38:15.338Z,1003.96
2018-04-02T01:39:15.236Z,1004.02
2018-04-02T01:40:15.131Z,1004.02
2018-04-02T01:41:15.016Z,1003.96
2018-04-02T01:42:14.911Z,1003.98
2018-04-02T01:43:14.808Z,1004.06
2018-04-02T01:44:14.705Z,1004.06
2018-04-02T01:45:14.591Z,1004.05
2018-04-02T01:46:14.489Z,1004.06
2018-04-02T01:47:14.383Z,1004.07
2018-04-02T01:48:14.266Z,1004.10
2018-04-02T01:49:14.164Z,1004.13
2018-04-02T01:50:14.059Z,1004.07
2018-04-02T01:51:13.945Z,1004.13
2018-04-02T01:52:13.844Z,1004.12
2018-04-02T01:53:13.738Z,1004.12
2018-04-02T01:54:13.627Z,1004.08
2018-04-02T01:55:13.520Z,1004.16
2018-04-02T01:56:13.415Z,1004.08
2018-04-02T01:57:13.312Z,1004.18
2018-04-02T01:58:13.196Z,1004.10
2018-04-02T01:59:13.093Z,1004.15
2018-04-02T02:00:12.992Z,1004.12
2018-04-02T02:01:12.875Z,1004.13
2018-04-02T02:02:12.769Z,1004.15
2018-04-02T02:03:12.666Z,1004.14
2018-04-02T02:04:12.577Z,1004.15
2018-04-02T02:05:12.449Z,1004.10
2018-04-02T02:06:12.344Z,1004.17
2018-04-02T02:07:12.241Z,1004.15
2018-04-02T02:08:12.126Z,1004.12
2018-04-02T02:09:12.035Z,1004.16
2018-04-02T02:10:11.920Z,1004.16
2018-04-02T02:11:11.803Z,1004.10
2018-04-02T02:12:11.702Z,1004.15
2018-04-02T02:13:11.597Z,1004.11
2018-04-02T02:14:11.493Z,1004.09
2018-04-02T02:15:11.377Z,1004.15
2018-04-02T02:16:11.273Z,1004.14
2018-04-02T02:17:11.170Z,1004.14
2018-04-02T02:18:11.056Z,1004.13
2018-04-02T02:19:10.952Z,1004.11
2018-04-02T02:20:10.848Z,1004.12
2018-04-02T02:21:10.733Z,1004.21
2018-04-02T02:22:10.629Z,1004.17
2018-04-02T02:23:10.525Z,1004.17
2018-04-02T02:24:10.421Z,1004.17
2018-04-02T02:25:10.312Z,1004.21
2018-04-02T02:26:10.203Z,1004.19
2018-04-02T02:27:10.101Z,1004.10
2018-04-02T02:28:09.983Z,1004.14
2018-04-02T02:29:09.894Z,1004.12
2018-04-02T02:30:09.777Z,1004.14
2018-04-02T02:31:09.662Z,1004.09
2018-04-02T02:32:09.810Z,1004.11
2018-04-02T02:33:09.455Z,1004.10
2018-04-02T02:34:09.339Z,1004.14
2018-04-02T02:35:09.238Z,1004.10
2018-04-02T02:36:09.133Z,1004.16
2018-04-02T02:37:09.032Z,1004.16
2018-04-02T02:38:08.914Z,1004.15
2018-04-02T02:39:08.810Z,1004.13
2018-04-02T02:40:08.707Z,1004.18
2018-04-02T02:41:08.590Z,1004.09
2018-04-02T02:42:08.501Z,1004.20
2018-04-02T02:43:08.384Z,1004.18
2018-04-02T02:44:08.271Z,1004.22
2018-04-02T02:45:08.166Z,1004.23
2018-04-02T02:46:08.066Z,1004.21
2018-04-02T02:47:07.947Z,1004.24
2018-04-02T02:48:07.843Z,1004.22
2018-04-02T02:49:07.738Z,1004.25
2018-04-02T02:50:07.629Z,1004.29
2018-04-02T02:51:07.521Z,1004.31
2018-04-02T02:52:07.473Z,1004.29
2018-04-02T02:53:07.302Z,1004.31
2018-04-02T02:54:07.200Z,1004.35
2018-04-02T02:55:07.094Z,1004.34
2018-04-02T02:56:06.992Z,1004.36
2018-04-02T02:57:07.176Z,1004.37
2018-04-02T02:58:06.773Z,1004.41
2018-04-02T02:59:06.669Z,1004.39
2018-04-02T03:00:06.553Z,1004.42
2018-04-02T03:01:06.448Z,1004.40
2018-04-02T03:02:06.359Z,1004.43
2018-04-02T03:03:06.230Z,1004.42
2018-04-02T03:04:06.129Z,1004.44
2018-04-02T03:05:06.013Z,1004.50
2018-04-02T03:06:05.909Z,1004.45
2018-04-02T03:07:05.807Z,1004.45
2018-04-02T03:08:05.701Z,1004.45
2018-04-02T03:09:05.587Z,1004.43
2018-04-02T03:10:05.482Z,1004.50
2018-04-02T03:11:05.378Z,1004.42
2018-04-02T03:12:05.263Z,1004.44
2018-04-02T03:13:05.159Z,1004.48
2018-04-02T03:14:05.055Z,1004.43
2018-04-02T03:15:04.944Z,1004.50
2018-04-02T03:16:04.838Z,1004.48
2018-04-02T03:17:04.722Z,1004.41
2018-04-02T03:18:04.617Z,1004.49
2018-04-02T03:19:04.514Z,1004.43
2018-04-02T03:20:04.412Z,1004.44
2018-04-02T03:21:04.298Z,1004.43
2018-04-02T03:22:04.192Z,1004.42
2018-04-02T03:23:04.077Z,1004.45
2018-04-02T03:24:03.972Z,1004.48
2018-04-02T03:25:03.881Z,1004.43
2018-04-02T03:26:03.757Z,1004.45
2018-04-02T03:27:03.901Z,1004.40
2018-04-02T03:28:03.548Z,1004.42
2018-04-02T03:29:03.430Z,1004.45
2018-04-02T03:30:03.329Z,1004.43
2018-04-02T03:31:03.224Z,1004.43
2018-04-02T03:32:03.109Z,1004.39
2018-04-02T03:33:03.006Z,1004.48
2018-04-02T03:34:02.902Z,1004.51
2018-04-02T03:35:02.786Z,1004.43
2018-04-02T03:36:02.682Z,1004.42
2018-04-02T03:37:02.579Z,1004.44
2018-04-02T03:38:02.463Z,1004.46
2018-04-02T03:39:02.362Z,1004.44
2018-04-02T03:40:02.248Z,1004.40
2018-04-02T03:41:02.141Z,1004.45
2018-04-02T03:42:02.042Z,1004.43
2018-04-02T03:43:01.922Z,1004.40
2018-04-02T03:44:01.820Z,1004.46
2018-04-02T03:45:01.715Z,1004.49
2018-04-02T03:46:01.611Z,1004.47
2018-04-02T03:47:01.745Z,1004.52
2018-04-02T03:48:01.392Z,1004.54
2018-04-02T03:49:01.278Z,1004.54
2018-04-02T03:50:01.175Z,1004.51
2018-04-02T03:51:01.071Z,1004.57
2018-04-02T03:52:00.955Z,1004.56
2018-04-02T03:53:00.851Z,1004.55
2018-04-02T03:54:00.736Z,1004.57
2018-04-02T03:55:00.632Z,1004.63
2018-04-02T03:56:00.563Z,1004.59
2018-04-02T03:57:00.414Z,1004.67
2018-04-02T03:58:00.309Z,1004.70
2018-04-02T03:59:00.206Z,1004.71
2018-04-02T04:00:00.091Z,1004.71
2018-04-02T04:00:59.991Z,1004.63
2018-04-02T04:01:59.873Z,1004.66
2018-04-02T04:02:59.768Z,1004.65
2018-04-02T04:03:59.664Z,1004.68
2018-04-02T04:04:59.549Z,1004.69
2018-04-02T04:05:59.450Z,1004.68
2018-04-02T04:06:59.344Z,1004.65
2018-04-02T04:07:59.226Z,1004.70
2018-04-02T04:08:59.125Z,1004.75
2018-04-02T04:09:59.019Z,1004.72
2018-04-02T04:10:58.909Z,1004.77
2018-04-02T04:11:58.801Z,1004.79
2018-04-02T04:12:58.696Z,1004.78
2018-04-02T04:13:58.581Z,1004.82
2018-04-02T04:14:58.477Z,1004.76
2018-04-02T04:15:58.363Z,1004.79
2018-04-02T04:16:58.259Z,1004.80
2018-04-02T04:17:58.156Z,1004.78
2018-04-02T04:18:58.039Z,1004.81
2018-04-02T04:19:57.936Z,1004.81
2018-04-02T04:20:57.887Z,1004.74
2018-04-02T04:21:57.718Z,1004.78
2018-04-02T04:22:57.614Z,1004.71
2018-04-02T04:23:57.499Z,1004.76
2018-04-02T04:24:57.394Z,1004.77
2018-04-02T04:25:57.291Z,1004.79
2018-04-02T04:26:57.176Z,1004.75
2018-04-02T04:27:57.073Z,1004.69
2018-04-02T04:28:56.968Z,1004.76
2018-04-02T04:29:56.853Z,1004.76
2018-04-02T04:30:56.751Z,1004.75
2018-04-02T04:31:56.659Z,1004.75
2018-04-02T04:32:56.531Z,1004.76
2018-04-02T04:33:56.427Z,1004.75
2018-04-02T04:34:56.311Z,1004.79
2018-04-02T04:35:56.215Z,1004.75
2018-04-02T04:36:56.105Z,1004.82
2018-04-02T04:37:55.993Z,1004.79
2018-04-02T04:38:55.886Z,1004.81
2018-04-02T04:39:55.783Z,1004.87
2018-04-02T04:40:55.667Z,1004.88
2018-04-02T04:41:55.563Z,1004.85
2018-04-02T04:42:55.448Z,1004.84
2018-04-02T04:43:55.345Z,1004.85
2018-04-02T04:44:55.241Z,1004.85
2018-04-02T04:45:55.124Z,1004.88
2018-04-02T04:46:55.022Z,1004.90
2018-04-02T04:47:54.919Z,1004.90
2018-04-02T04:48:54.803Z,1004.96
2018-04-02T04:49:54.700Z,1005.00
2018-04-02T04:50:54.596Z,1005.02
2018-04-02T04:51:54.479Z,1005.00
2018-04-02T04:52:54.376Z,1005.01
2018-04-02T04:53:54.263Z,1005.02
2018-04-02T04:54:54.158Z,1005.03
2018-04-02T04:55:54.054Z,1005.03
2018-04-02T04:56:53.938Z,1005.04
2018-04-02T04:57:53.835Z,1005.01
2018-04-02T04:58:53.731Z,1005.06
2018-04-02T04:59:53.617Z,1005.06
2018-04-02T05:00:53.512Z,1005.03
2018-04-02T05:01:53.398Z,1005.09
2018-04-02T05:02:53.291Z,1005.07
2018-04-02T05:03:53.187Z,1005.05
2018-04-02T05:04:53.076Z,1005.10
2018-04-02T05:05:52.978Z,1005.07
2018-04-02T05:06:52.867Z,1005.07
2018-04-02T05:07:52.751Z,1005.06
2018-04-02T05:08:52.648Z,1005.06
2018-04-02T05:09:52.545Z,1005.07
2018-04-02T05:10:52.433Z,1005.10
2018-04-02T05:11:52.327Z,1005.06
2018-04-02T05:12:52.225Z,1005.09
2018-04-02T05:13:52.108Z,1005.12
2018-04-02T05:14:52.004Z,1005.08
2018-04-02T05:15:51.900Z,1005.08
2018-04-02T05:16:51.785Z,1005.09
2018-04-02T05:17:51.685Z,1005.17
2018-04-02T05:18:51.579Z,1005.17
2018-04-02T05:19:51.461Z,1005.18
2018-04-02T05:20:51.390Z,1005.16
2018-04-02T05:21:51.255Z,1005.21
2018-04-02T05:22:51.176Z,1005.16
2018-04-02T05:23:51.038Z,1005.19
2018-04-02T05:24:50.933Z,1005.24
2018-04-02T05:25:50.817Z,1005.23
2018-04-02T05:26:50.713Z,1005.24
2018-04-02T05:27:50.610Z,1005.28
2018-04-02T05:28:50.495Z,1005.24
2018-04-02T05:29:50.392Z,1005.26
2018-04-02T05:30:50.288Z,1005.24
2018-04-02T05:31:50.173Z,1005.24
2018-04-02T05:32:50.082Z,1005.25
2018-04-02T05:33:49.965Z,1005.25
2018-04-02T05:34:49.862Z,1005.26
2018-04-02T05:35:49.746Z,1005.28
2018-04-02T05:36:49.643Z,1005.29
2018-04-02T05:37:49.540Z,1005.29
2018-04-02T05:38:49.424Z,1005.24
2018-04-02T05:39:49.320Z,1005.31
2018-04-02T05:40:49.217Z,1005.41
2018-04-02T05:41:49.106Z,1005.35
2018-04-02T05:42:49.007Z,1005.36
2018-04-02T05:43:48.895Z,1005.44
2018-04-02T05:44:48.780Z,1005.42
2018-04-02T05:45:48.688Z,1005.42
2018-04-02T05:46:48.571Z,1005.47
2018-04-02T05:47:48.468Z,1005.44
2018-04-02T05:48:48.354Z,1005.48
2018-04-02T05:49:48.255Z,1005.50
2018-04-02T05:50:48.147Z,1005.46
2018-04-02T05:51:48.032Z,1005.47
2018-04-02T05:52:47.927Z,1005.45
2018-04-02T05:53:47.824Z,1005.45
2018-04-02T05:54:47.720Z,1005.44
2018-04-02T05:55:47.605Z,1005.44
2018-04-02T05:56:47.502Z,1005.45
2018-04-02T05:57:47.399Z,1005.45
2018-04-02T05:58:47.296Z,1005.47
2018-04-02T05:59:47.217Z,1005.53
2018-04-02T06:00:47.075Z,1005.49
2018-04-02T06:01:46.972Z,1005.49
2018-04-02T06:02:46.869Z,1005.51
2018-04-02T06:03:46.754Z,1005.52
2018-04-02T06:04:46.651Z,1005.52
2018-04-02T06:05:46.547Z,1005.52
2018-04-02T06:06:46.432Z,1005.52
2018-04-02T06:07:46.328Z,1005.50
2018-04-02T06:08:46.224Z,1005.49
2018-04-02T06:09:46.126Z,1005.54
2018-04-02T06:10:46.006Z,1005.57
2018-04-02T06:11:45.902Z,1005.48
2018-04-02T06:12:45.799Z,1005.55
2018-04-02T06:13:45.696Z,1005.55
2018-04-02T06:14:45.585Z,1005.52
2018-04-02T06:15:45.479Z,1005.56
2018-04-02T06:16:45.375Z,1005.55
2018-04-02T06:17:45.268Z,1005.50
2018-04-02T06:18:45.154Z,1005.53
2018-04-02T06:19:45.051Z,1005.53
2018-04-02T06:20:44.948Z,1005.60
2018-04-02T06:21:44.848Z,1005.60
2018-04-02T06:22:44.729Z,1005.54
2018-04-02T06:23:44.624Z,1005.59
2018-04-02T06:24:44.522Z,1005.58
2018-04-02T06:25:44.417Z,1005.65
2018-04-02T06:26:44.314Z,1005.63
2018-04-02T06:27:44.199Z,1005.64
2018-04-02T06:28:44.096Z,1005.66
2018-04-02T06:29:43.993Z,1005.69
2018-04-02T06:30:43.895Z,1005.71
2018-04-02T06:31:43.774Z,1005.66
2018-04-02T06:32:43.675Z,1005.75
2018-04-02T06:33:43.580Z,1005.70
2018-04-02T06:34:43.462Z,1005.73
2018-04-02T06:35:43.359Z,1005.71
2018-04-02T06:36:43.244Z,1005.74
2018-04-02T06:37:43.140Z,1005.75
2018-04-02T06:38:43.037Z,1005.78
2018-04-02T06:39:42.934Z,1005.72
2018-04-02T06:40:42.831Z,1005.71
2018-04-02T06:41:42.715Z,1005.76
2018-04-02T06:42:42.612Z,1005.80
2018-04-02T06:43:42.508Z,1005.76
2018-04-02T06:44:42.404Z,1005.78
2018-04-02T06:45:42.305Z,1005.78
2018-04-02T06:46:42.198Z,1005.77
2018-04-02T06:47:42.084Z,1005.83
2018-04-02T06:48:41.979Z,1005.81
2018-04-02T06:49:41.876Z,1005.85
2018-04-02T06:50:41.776Z,1005.88
2018-04-02T06:51:41.670Z,1005.87
2018-04-02T06:52:41.555Z,1005.84
2018-04-02T06:53:41.450Z,1005.85
2018-04-02T06:54:41.346Z,1005.88
2018-04-02T06:55:41.243Z,1005.94
2018-04-02T06:56:41.139Z,1005.89
2018-04-02T06:57:41.036Z,1005.85
2018-04-02T06:58:40.933Z,1005.87
2018-04-02T06:59:40.818Z,1005.90
2018-04-02T07:00:40.715Z,1005.88
2018-04-02T07:01:40.612Z,1005.82
2018-04-02T07:02:40.510Z,1005.85
2018-04-02T07:03:40.404Z,1005.88
2018-04-02T07:04:40.301Z,1005.92
2018-04-02T07:05:40.198Z,1005.86
2018-04-02T07:06:40.139Z,1005.94
2018-04-02T07:07:39.980Z,1006.02
2018-04-02T07:08:39.875Z,1006.00
2018-04-02T07:09:39.771Z,1005.99
2018-04-02T07:10:39.670Z,1005.94
2018-04-02T07:11:39.582Z,1005.93
2018-04-02T07:12:39.461Z,1005.97
2018-04-02T07:13:39.358Z,1005.94
2018-04-02T07:14:39.255Z,1005.99
2018-04-02T07:15:39.151Z,1006.01
2018-04-02T07:16:39.048Z,1006.01
2018-04-02T07:17:38.958Z,1006.00
2018-04-02T07:18:38.844Z,1006.04
2018-04-02T07:19:38.738Z,1006.01
2018-04-02T07:20:38.635Z,1006.05
2018-04-02T07:21:38.534Z,1006.02
2018-04-02T07:22:38.428Z,1006.06
2018-04-02T07:23:38.325Z,1006.03
2018-04-02T07:24:38.225Z,1006.02
2018-04-02T07:25:38.118Z,1005.98
2018-04-02T07:26:38.015Z,1006.02
2018-04-02T07:27:37.912Z,1006.01
2018-04-02T07:28:37.809Z,1006.02
2018-04-02T07:29:37.706Z,1006.04
2018-04-02T07:30:37.591Z,1006.03
2018-04-02T07:31:37.738Z,1006.06
2018-04-02T07:32:37.384Z,1006.05
2018-04-02T07:33:37.279Z,1006.00
2018-04-02T07:34:37.178Z,1006.01
2018-04-02T07:35:37.073Z,1006.03
2018-04-02T07:36:36.970Z,1006.03
2018-04-02T07:37:36.868Z,1005.97
2018-04-02T07:38:36.764Z,1005.96
2018-04-02T07:39:36.660Z,1005.93
2018-04-02T07:40:36.558Z,1005.95
2018-04-02T07:41:36.454Z,1005.94
2018-04-02T07:42:36.353Z,1005.97
2018-04-02T07:43:36.248Z,1005.98
2018-04-02T07:44:36.143Z,1005.99
2018-04-02T07:45:36.029Z,1006.00
2018-04-02T07:46:35.925Z,1005.96
2018-04-02T07:47:35.821Z,1005.98
2018-04-02T07:48:35.717Z,1006.01
2018-04-02T07:49:35.614Z,1006.04
2018-04-02T07:50:35.543Z,1006.08
2018-04-02T07:51:35.421Z,1006.03
2018-04-02T07:52:35.303Z,1006.08
2018-04-02T07:53:35.200Z,1006.05
2018-04-02T07:54:35.098Z,1006.02
2018-04-02T07:55:34.994Z,1006.08
2018-04-02T07:56:34.879Z,1006.08
2018-04-02T07:57:34.776Z,1006.08
2018-04-02T07:58:34.672Z,1006.05
2018-04-02T07:59:34.569Z,1006.02
2018-04-02T08:00:34.465Z,1006.11
2018-04-02T08:01:34.363Z,1006.09
2018-04-02T08:02:34.261Z,1006.11
2018-04-02T08:03:34.157Z,1006.09
2018-04-02T08:04:34.055Z,1006.10
2018-04-02T08:05:33.948Z,1006.15
2018-04-02T08:06:33.835Z,1006.17
2018-04-02T08:07:33.730Z,1006.16
2018-04-02T08:08:33.636Z,1006.19
2018-04-02T08:09:33.528Z,1006.20
2018-04-02T08:10:33.432Z,1006.17
2018-04-02T08:11:33.316Z,1006.19
2018-04-02T08:12:33.215Z,1006.21
2018-04-02T08:13:33.113Z,1006.21
2018-04-02T08:14:33.006Z,1006.26
2018-04-02T08:15:32.903Z,1006.32
2018-04-02T08:16:32.804Z,1006.27
2018-04-02T08:17:32.686Z,1006.28
2018-04-02T08:18:32.582Z,1006.32
2018-04-02T08:19:32.477Z,1006.32
2018-04-02T08:20:32.375Z,1006.35
2018-04-02T08:21:32.271Z,1006.40
2018-04-02T08:22:32.168Z,1006.32
2018-04-02T08:23:32.067Z,1006.38
2018-04-02T08:24:31.965Z,1006.28
2018-04-02T08:25:31.864Z,1006.36
2018-04-02T08:26:31.755Z,1006.34
2018-04-02T08:27:31.652Z,1006.35
2018-04-02T08:28:31.547Z,1006.41
2018-04-02T08:29:31.445Z,1006.39
2018-04-02T08:30:31.341Z,1006.38
2018-04-02T08:31:31.227Z,1006.45
2018-04-02T08:32:31.149Z,1006.39
2018-04-02T08:33:31.019Z,1006.44
2018-04-02T08:34:30.915Z,1006.47
2018-04-02T08:35:30.811Z,1006.45
2018-04-02T08:36:30.736Z,1006.46
2018-04-02T08:37:30.604Z,1006.44
2018-04-02T08:38:30.501Z,1006.34
2018-04-02T08:39:30.403Z,1006.38
2018-04-02T08:40:30.296Z,1006.35
2018-04-02T08:41:30.192Z,1006.43
2018-04-02T08:42:30.088Z,1006.42
2018-04-02T08:43:29.984Z,1006.42
2018-04-02T08:44:29.881Z,1006.44
2018-04-02T08:45:29.778Z,1006.46
2018-04-02T08:46:29.675Z,1006.42
2018-04-02T08:47:29.585Z,1006.43
2018-04-02T08:48:29.473Z,1006.42
2018-04-02T08:49:29.364Z,1006.47
2018-04-02T08:50:29.261Z,1006.45
2018-04-02T08:51:29.158Z,1006.45
2018-04-02T08:52:29.055Z,1006.46
2018-04-02T08:53:28.952Z,1006.47
2018-04-02T08:54:28.848Z,1006.49
2018-04-02T08:55:28.744Z,1006.44
2018-04-02T08:56:28.643Z,1006.45
2018-04-02T08:57:28.539Z,1006.52
2018-04-02T08:58:28.435Z,1006.52
2018-04-02T08:59:28.332Z,1006.52
2018-04-02T09:00:28.228Z,1006.52
2018-04-02T09:01:28.142Z,1006.50
2018-04-02T09:02:28.022Z,1006.59
2018-04-02T09:03:27.917Z,1006.47
2018-04-02T09:04:27.816Z,1006.50
2018-04-02T09:05:27.712Z,1006.53
2018-04-02T09:06:27.608Z,1006.48
2018-04-02T09:07:27.508Z,1006.45
2018-04-02T09:08:27.402Z,1006.51
2018-04-02T09:09:27.298Z,1006.54
2018-04-02T09:10:27.197Z,1006.60
2018-04-02T09:11:27.093Z,1006.54
2018-04-02T09:12:26.989Z,1006.51
2018-04-02T09:13:26.884Z,1006.53
2018-04-02T09:14:26.782Z,1006.50
2018-04-02T09:15:26.678Z,1006.51
2018-04-02T09:16:26.575Z,1006.50
2018-04-02T09:17:26.474Z,1006.47
2018-04-02T09:18:26.369Z,1006.42
2018-04-02T09:19:26.265Z,1006.36
2018-04-02T09:20:26.163Z,1006.36
2018-04-02T09:21:26.059Z,1006.33
2018-04-02T09:22:25.957Z,1006.33
2018-04-02T09:23:25.859Z,1006.33
2018-04-02T09:24:25.748Z,1006.36
2018-04-02T09:25:25.739Z,1006.32
2018-04-02T09:26:25.542Z,1006.35
2018-04-02T09:27:25.441Z,1006.29
2018-04-02T09:28:25.335Z,1006.26
2018-04-02T09:29:25.232Z,1006.29
2018-04-02T09:30:25.128Z,1006.31
2018-04-02T09:31:25.026Z,1006.24
2018-04-02T09:32:24.922Z,1006.22
2018-04-02T09:33:24.818Z,1006.27
2018-04-02T09:34:24.715Z,1006.26
2018-04-02T09:35:24.625Z,1006.26
2018-04-02T09:36:24.508Z,1006.26
2018-04-02T09:37:24.406Z,1006.15
2018-04-02T09:38:24.305Z,1006.16
2018-04-02T09:39:24.198Z,1006.19
2018-04-02T09:40:24.096Z,1006.10
2018-04-02T09:41:23.992Z,1006.13
2018-04-02T09:42:23.888Z,1006.14
2018-04-02T09:43:23.785Z,1006.09
2018-04-02T09:44:23.684Z,1006.22
2018-04-02T09:45:23.578Z,1006.21
2018-04-02T09:46:23.479Z,1006.20
2018-04-02T09:47:23.372Z,1006.18
2018-04-02T09:48:23.269Z,1006.19
2018-04-02T09:49:23.166Z,1006.17
2018-04-02T09:50:23.062Z,1006.14
2018-04-02T09:51:22.959Z,1006.15
2018-04-02T09:52:22.856Z,1006.16
2018-04-02T09:53:22.752Z,1006.13
2018-04-02T09:54:22.648Z,1006.14
2018-04-02T09:55:22.545Z,1006.05
2018-04-02T09:56:22.443Z,1006.11
2018-04-02T09:57:22.355Z,1006.09
2018-04-02T09:58:22.235Z,1006.11
2018-04-02T09:59:22.193Z,1006.11
2018-04-02T10:00:22.029Z,1006.15
2018-04-02T10:01:22.200Z,1006.09
2018-04-02T10:02:21.822Z,1006.16
2018-04-02T10:03:21.719Z,1006.14
2018-04-02T10:04:21.617Z,1006.15
2018-04-02T10:05:21.514Z,1006.14
2018-04-02T10:06:22.033Z,1006.11
2018-04-02T10:07:21.307Z,1006.12
2018-04-02T10:08:21.203Z,1006.11
2018-04-02T10:09:21.100Z,1006.10
2018-04-02T10:10:21.068Z,1006.01
2018-04-02T10:11:20.905Z,1006.03
2018-04-02T10:12:20.790Z,1006.06
2018-04-02T10:13:20.700Z,1005.99
2018-04-02T10:14:20.596Z,1006.04
2018-04-02T10:15:20.492Z,1006.06
2018-04-02T10:16:20.399Z,1006.11
2018-04-02T10:17:20.286Z,1006.07
2018-04-02T10:18:20.182Z,1006.07
2018-04-02T10:19:20.080Z,1006.05
2018-04-02T10:20:19.976Z,1006.03
2018-04-02T10:21:19.872Z,1006.04
2018-04-02T10:22:19.770Z,1006.00
2018-04-02T10:23:19.665Z,1006.11
2018-04-02T10:24:19.570Z,1006.08
2018-04-02T10:25:19.459Z,1006.01
2018-04-02T10:26:19.400Z,1006.01
2018-04-02T10:27:19.253Z,1005.95
2018-04-02T10:28:19.149Z,1006.02
2018-04-02T10:29:19.046Z,1006.00
2018-04-02T10:30:18.943Z,1006.02
2018-04-02T10:31:19.090Z,1006.05
2018-04-02T10:32:18.738Z,1005.98
2018-04-02T10:33:18.669Z,1005.88
2018-04-02T10:34:18.529Z,1005.96
2018-04-02T10:35:18.426Z,1005.95
2018-04-02T10:36:18.323Z,1005.89
2018-04-02T10:37:18.276Z,1005.96
2018-04-02T10:38:18.116Z,1005.98
2018-04-02T10:39:18.024Z,1006.01
2018-04-02T10:40:17.909Z,1005.98
2018-04-02T10:41:18.068Z,1005.92
2018-04-02T10:42:17.715Z,1005.88
2018-04-02T10:43:17.651Z,1005.91
2018-04-02T10:44:17.508Z,1005.86
2018-04-02T10:45:17.405Z,1005.83
2018-04-02T10:46:17.314Z,1005.86
2018-04-02T10:47:17.197Z,1005.92
2018-04-02T10:48:17.094Z,1005.83
2018-04-02T10:49:16.991Z,1005.81
2018-04-02T10:50:16.888Z,1005.86
2018-04-02T10:51:16.784Z,1005.85
2018-04-02T10:52:16.681Z,1005.84
2018-04-02T10:53:16.578Z,1005.81
2018-04-02T10:54:16.474Z,1005.80
2018-04-02T10:55:16.371Z,1005.81
2018-04-02T10:56:16.273Z,1005.79
2018-04-02T10:57:16.166Z,1005.80
2018-04-02T10:58:16.074Z,1005.87
2018-04-02T10:59:15.971Z,1005.80
2018-04-02T11:00:15.867Z,1005.80
2018-04-02T11:01:15.765Z,1005.79
2018-04-02T11:02:15.662Z,1005.74
2018-04-02T11:03:15.558Z,1005.71
2018-04-02T11:04:15.453Z,1005.72
2018-04-02T11:05:15.352Z,1005.68
2018-04-02T11:06:15.298Z,1005.69
2018-04-02T11:07:15.145Z,1005.64
2018-04-02T11:08:15.042Z,1005.61
2018-04-02T11:09:14.938Z,1005.62
2018-04-02T11:10:14.846Z,1005.57
2018-04-02T11:11:14.744Z,1005.59
2018-04-02T11:12:14.641Z,1005.66
2018-04-02T11:13:14.536Z,1005.63
2018-04-02T11:14:14.432Z,1005.58
2018-04-02T11:15:14.329Z,1005.62
2018-04-02T11:16:14.240Z,1005.64
2018-04-02T11:17:14.124Z,1005.63
2018-04-02T11:18:14.020Z,1005.59
2018-04-02T11:19:13.916Z,1005.61
2018-04-02T11:20:13.813Z,1005.58
2018-04-02T11:21:13.961Z,1005.63
2018-04-02T11:22:13.619Z,1005.66
2018-04-02T11:23:13.518Z,1005.55
2018-04-02T11:24:13.413Z,1005.65
2018-04-02T11:25:13.309Z,1005.63
2018-04-02T11:26:13.206Z,1005.59
2018-04-02T11:27:13.102Z,1005.63
2018-04-02T11:28:13.000Z,1005.57
2018-04-02T11:29:12.896Z,1005.36
2018-04-02T11:30:12.793Z,1005.42
2018-04-02T11:31:12.690Z,1005.50
2018-04-02T11:32:12.598Z,1005.41
2018-04-02T11:33:12.495Z,1005.51
2018-04-02T11:34:12.392Z,1005.47
2018-04-02T11:35:12.288Z,1005.52
2018-04-02T11:36:12.184Z,1005.50
2018-04-02T11:37:12.095Z,1005.52
2018-04-02T11:38:11.978Z,1005.55
2018-04-02T11:39:11.875Z,1005.45
2018-04-02T11:40:11.784Z,1005.49
2018-04-02T11:41:11.670Z,1005.60
2018-04-02T11:42:11.579Z,1005.59
2018-04-02T11:43:11.475Z,1005.56
2018-04-02T11:44:11.371Z,1005.54
2018-04-02T11:45:11.268Z,1005.57
2018-04-02T11:46:11.164Z,1005.53
2018-04-02T11:47:11.061Z,1005.56
2018-04-02T11:48:11.006Z,1005.59
2018-04-02T11:49:10.855Z,1005.57
2018-04-02T11:50:10.764Z,1005.48
2018-04-02T11:51:10.910Z,1005.53
2018-04-02T11:52:10.557Z,1005.50
2018-04-02T11:53:10.459Z,1005.58
2018-04-02T11:54:10.351Z,1005.54
2018-04-02T11:55:10.247Z,1005.54
2018-04-02T11:56:10.143Z,1005.52
2018-04-02T11:57:10.053Z,1005.53
2018-04-02T11:58:09.939Z,1005.51
2018-04-02T11:59:09.847Z,1005.48
2018-04-02T12:00:09.743Z,1005.51
2018-04-02T12:01:09.891Z,1005.51
2018-04-02T12:02:09.540Z,1005.40
2018-04-02T12:03:09.434Z,1005.44
2018-04-02T12:04:09.331Z,1005.43